sensor_id;sensor_type;location;lat;lon;timestamp;pressure;altitude;pressure_sealevel;temperature;humidity
75788;BME280;64406;50.024;14.492;2023-12-14T00:01:14;96720.47;;;5.19;100.00
75788;BME280;64406;50.024;14.492;2023-12-14T00:03:40;96716.47;;;5.22;100.00
75788;BME280;64406;50.024;14.492;2023-12-14T00:06:08;96722.00;;;5.30;100.00
75788;BME280;64406;50.024;14.492;2023-12-14T00:08:33;96719.53;;;5.34;100.00
75788;BME280;64406;50.024;14.492;2023-12-14T00:11:08;96718.56;;;5.25;100.00
75788;BME280;64406;50.024;14.492;2023-12-14T00:13:34;96720.53;;;5.14;100.00
75788;BME280;64406;50.024;14.492;2023-12-14T00:16:00;96728.53;;;5.14;100.00
75788;BME280;64406;50.024;14.492;2023-12-14T00:18:26;96724.66;;;5.30;100.00
75788;BME280;64406;50.024;14.492;2023-12-14T00:20:52;96723.72;;;5.16;100.00
75788;BME280;64406;50.024;14.492;2023-12-14T00:23:19;96723.66;;;5.21;100.00
75788;BME280;64406;50.024;14.492;2023-12-14T00:25:45;96732.38;;;5.32;100.00
75788;BME280;64406;50.024;14.492;2023-12-14T00:28:11;96735.34;;;5.30;100.00
75788;BME280;64406;50.024;14.492;2023-12-14T00:30:37;96730.28;;;5.29;100.00
75788;BME280;64406;50.024;14.492;2023-12-14T00:33:02;96736.94;;;5.31;100.00
75788;BME280;64406;50.024;14.492;2023-12-14T00:35:28;96744.16;;;5.31;100.00
75788;BME280;64406;50.024;14.492;2023-12-14T00:37:53;96740.41;;;5.32;100.00
75788;BME280;64406;50.024;14.492;2023-12-14T00:40:19;96751.75;;;5.13;100.00
75788;BME280;64406;50.024;14.492;2023-12-14T00:42:45;96751.69;;;4.89;100.00
75788;BME280;64406;50.024;14.492;2023-12-14T00:45:10;96770.00;;;5.01;100.00
75788;BME280;64406;50.024;14.492;2023-12-14T00:47:36;96777.59;;;4.84;100.00
75788;BME280;64406;50.024;14.492;2023-12-14T00:50:02;96770.16;;;4.81;100.00
75788;BME280;64406;50.024;14.492;2023-12-14T00:52:28;96772.75;;;4.91;100.00
75788;BME280;64406;50.024;14.492;2023-12-14T00:54:53;96779.53;;;5.12;100.00
75788;BME280;64406;50.024;14.492;2023-12-14T00:57:19;96778.09;;;5.25;100.00
75788;BME280;64406;50.024;14.492;2023-12-14T00:59:45;96779.56;;;5.41;100.00
75788;BME280;64406;50.024;14.492;2023-12-14T01:02:11;96781.84;;;5.53;100.00
75788;BME280;64406;50.024;14.492;2023-12-14T01:04:37;96786.34;;;5.58;100.00
75788;BME280;64406;50.024;14.492;2023-12-14T01:07:04;96789.28;;;5.61;100.00
75788;BME280;64406;50.024;14.492;2023-12-14T01:09:30;96791.66;;;5.63;100.00
75788;BME280;64406;50.024;14.492;2023-12-14T01:11:55;96804.63;;;5.45;100.00
75788;BME280;64406;50.024;14.492;2023-12-14T01:14:21;96813.06;;;5.58;100.00
75788;BME280;64406;50.024;14.492;2023-12-14T01:16:46;96808.97;;;5.36;100.00
75788;BME280;64406;50.024;14.492;2023-12-14T01:19:12;96813.09;;;5.24;100.00
75788;BME280;64406;50.024;14.492;2023-12-14T01:21:38;96811.97;;;5.30;100.00
75788;BME280;64406;50.024;14.492;2023-12-14T01:24:04;96812.19;;;5.33;100.00
75788;BME280;64406;50.024;14.492;2023-12-14T01:26:29;96812.19;;;5.33;100.00
75788;BME280;64406;50.024;14.492;2023-12-14T01:28:55;96823.19;;;5.27;100.00
75788;BME280;64406;50.024;14.492;2023-12-14T01:31:21;96829.38;;;5.22;100.00
75788;BME280;64406;50.024;14.492;2023-12-14T01:33:50;96816.34;;;5.15;100.00
75788;BME280;64406;50.024;14.492;2023-12-14T01:36:23;96826.53;;;5.08;100.00
75788;BME280;64406;50.024;14.492;2023-12-14T01:38:49;96827.13;;;5.00;100.00
75788;BME280;64406;50.024;14.492;2023-12-14T01:41:14;96829.09;;;5.24;100.00
75788;BME280;64406;50.024;14.492;2023-12-14T01:43:40;96835.56;;;5.17;100.00
75788;BME280;64406;50.024;14.492;2023-12-14T01:46:06;96830.50;;;5.16;100.00
75788;BME280;64406;50.024;14.492;2023-12-14T01:48:31;96831.81;;;5.13;100.00
75788;BME280;64406;50.024;14.492;2023-12-14T01:50:57;96835.56;;;5.17;100.00
75788;BME280;64406;50.024;14.492;2023-12-14T01:53:23;96827.38;;;5.38;100.00
75788;BME280;64406;50.024;14.492;2023-12-14T01:55:48;96846.97;;;5.28;100.00
75788;BME280;64406;50.024;14.492;2023-12-14T01:58:14;96838.44;;;5.21;100.00
75788;BME280;64406;50.024;14.492;2023-12-14T02:00:48;96840.47;;;5.34;100.00
75788;BME280;64406;50.024;14.492;2023-12-14T02:03:16;96853.28;;;5.37;100.00
75788;BME280;64406;50.024;14.492;2023-12-14T02:05:42;96845.56;;;5.36;100.00
75788;BME280;64406;50.024;14.492;2023-12-14T02:08:08;96847.97;;;5.32;100.00
75788;BME280;64406;50.024;14.492;2023-12-14T02:10:34;96857.38;;;5.25;100.00
75788;BME280;64406;50.024;14.492;2023-12-14T02:13:03;96853.09;;;5.29;100.00
75788;BME280;64406;50.024;14.492;2023-12-14T02:15:28;96859.88;;;5.11;100.00
75788;BME280;64406;50.024;14.492;2023-12-14T02:17:55;96857.69;;;5.18;100.00
75788;BME280;64406;50.024;14.492;2023-12-14T02:20:20;96871.06;;;5.13;100.00
75788;BME280;64406;50.024;14.492;2023-12-14T02:22:56;96873.44;;;5.19;100.00
75788;BME280;64406;50.024;14.492;2023-12-14T02:25:23;96872.16;;;5.07;100.00
75788;BME280;64406;50.024;14.492;2023-12-14T02:27:50;96875.41;;;5.43;100.00
75788;BME280;64406;50.024;14.492;2023-12-14T02:30:17;96879.06;;;5.18;100.00
75788;BME280;64406;50.024;14.492;2023-12-14T02:32:43;96880.34;;;5.21;100.00
75788;BME280;64406;50.024;14.492;2023-12-14T02:35:08;96880.16;;;5.12;100.00
75788;BME280;64406;50.024;14.492;2023-12-14T02:37:34;96880.75;;;5.04;100.00
75788;BME280;64406;50.024;14.492;2023-12-14T02:40:06;96875.69;;;5.02;100.00
75788;BME280;64406;50.024;14.492;2023-12-14T02:42:32;96883.59;;;5.17;100.00
75788;BME280;64406;50.024;14.492;2023-12-14T02:44:58;96876.50;;;4.98;100.00
75788;BME280;64406;50.024;14.492;2023-12-14T02:47:25;96887.47;;;4.96;100.00
75788;BME280;64406;50.024;14.492;2023-12-14T02:49:51;96885.59;;;4.91;100.00
75788;BME280;64406;50.024;14.492;2023-12-14T02:52:16;96887.19;;;4.98;100.00
75788;BME280;64406;50.024;14.492;2023-12-14T02:54:42;96888.41;;;5.15;100.00
75788;BME280;64406;50.024;14.492;2023-12-14T02:57:08;96885.22;;;5.08;100.00
75788;BME280;64406;50.024;14.492;2023-12-14T02:59:33;96884.69;;;5.16;100.00
75788;BME280;64406;50.024;14.492;2023-12-14T03:01:59;96889.25;;;5.06;100.00
75788;BME280;64406;50.024;14.492;2023-12-14T03:04:25;96899.16;;;5.00;100.00
75788;BME280;64406;50.024;14.492;2023-12-14T03:06:51;96900.25;;;4.94;100.00
75788;BME280;64406;50.024;14.492;2023-12-14T03:09:16;96900.25;;;4.94;100.00
75788;BME280;64406;50.024;14.492;2023-12-14T03:11:44;96904.59;;;4.85;100.00
75788;BME280;64406;50.024;14.492;2023-12-14T03:14:10;96904.53;;;4.95;100.00
75788;BME280;64406;50.024;14.492;2023-12-14T03:16:36;96904.66;;;5.19;100.00
75788;BME280;64406;50.024;14.492;2023-12-14T03:19:02;96920.19;;;5.12;100.00
75788;BME280;64406;50.024;14.492;2023-12-14T03:21:29;96917.31;;;5.03;100.00
75788;BME280;64406;50.024;14.492;2023-12-14T03:23:54;96922.16;;;4.96;100.00
75788;BME280;64406;50.024;14.492;2023-12-14T03:26:20;96919.22;;;4.93;100.00
75788;BME280;64406;50.024;14.492;2023-12-14T03:28:46;96921.59;;;4.94;100.00
75788;BME280;64406;50.024;14.492;2023-12-14T03:31:12;96922.16;;;4.96;100.00
75788;BME280;64406;50.024;14.492;2023-12-14T03:33:39;96932.56;;;4.87;100.00
75788;BME280;64406;50.024;14.492;2023-12-14T03:36:04;96932.31;;;4.89;100.00
75788;BME280;64406;50.024;14.492;2023-12-14T03:38:31;96931.25;;;4.90;100.00
75788;BME280;64406;50.024;14.492;2023-12-14T03:40:57;96934.22;;;4.83;100.00
75788;BME280;64406;50.024;14.492;2023-12-14T03:43:22;96933.72;;;4.76;100.00
75788;BME280;64406;50.024;14.492;2023-12-14T03:45:48;96936.09;;;4.83;100.00
75788;BME280;64406;50.024;14.492;2023-12-14T03:48:14;96928.66;;;4.70;100.00
75788;BME280;64406;50.024;14.492;2023-12-14T03:50:40;96931.34;;;4.59;100.00
75788;BME280;64406;50.024;14.492;2023-12-14T03:53:06;96934.31;;;4.58;100.00
75788;BME280;64406;50.024;14.492;2023-12-14T03:55:32;96940.44;;;4.53;100.00
75788;BME280;64406;50.024;14.492;2023-12-14T03:57:58;96940.72;;;4.52;100.00
75788;BME280;64406;50.024;14.492;2023-12-14T04:00:24;96942.06;;;4.44;100.00
75788;BME280;64406;50.024;14.492;2023-12-14T04:02:49;96945.50;;;4.55;100.00
75788;BME280;64406;50.024;14.492;2023-12-14T04:05:15;96944.75;;;4.49;100.00
75788;BME280;64406;50.024;14.492;2023-12-14T04:07:41;96943.66;;;4.50;100.00
75788;BME280;64406;50.024;14.492;2023-12-14T04:12:35;96944.41;;;4.61;100.00
75788;BME280;64406;50.024;14.492;2023-12-14T04:15:02;96953.50;;;4.60;100.00
75788;BME280;64406;50.024;14.492;2023-12-14T04:17:28;96955.34;;;4.70;100.00
75788;BME280;64406;50.024;14.492;2023-12-14T04:19:53;96963.63;;;4.63;100.00
75788;BME280;64406;50.024;14.492;2023-12-14T04:22:20;96970.06;;;4.52;100.00
75788;BME280;64406;50.024;14.492;2023-12-14T04:24:46;96963.13;;;4.51;100.00
75788;BME280;64406;50.024;14.492;2023-12-14T04:27:11;96969.75;;;4.58;100.00
75788;BME280;64406;50.024;14.492;2023-12-14T04:29:37;96969.78;;;4.48;100.00
75788;BME280;64406;50.024;14.492;2023-12-14T04:32:03;96979.13;;;4.35;100.00
75788;BME280;64406;50.024;14.492;2023-12-14T04:34:29;96983.66;;;4.35;100.00
75788;BME280;64406;50.024;14.492;2023-12-14T04:36:54;96985.56;;;4.29;100.00
75788;BME280;64406;50.024;14.492;2023-12-14T04:39:24;96986.88;;;4.22;100.00
75788;BME280;64406;50.024;14.492;2023-12-14T04:41:54;96991.97;;;4.23;100.00
75788;BME280;64406;50.024;14.492;2023-12-14T04:44:20;97000.75;;;4.14;100.00
75788;BME280;64406;50.024;14.492;2023-12-14T04:46:47;96998.09;;;4.14;100.00
75788;BME280;64406;50.024;14.492;2023-12-14T04:49:13;97001.53;;;4.14;100.00
75788;BME280;64406;50.024;14.492;2023-12-14T04:51:39;97008.22;;;4.06;100.00
75788;BME280;64406;50.024;14.492;2023-12-14T04:54:05;97011.94;;;4.00;100.00
75788;BME280;64406;50.024;14.492;2023-12-14T04:56:30;97007.41;;;4.06;100.00
75788;BME280;64406;50.024;14.492;2023-12-14T04:58:56;97020.22;;;4.04;100.00
75788;BME280;64406;50.024;14.492;2023-12-14T05:01:22;97018.59;;;4.08;100.00
75788;BME280;64406;50.024;14.492;2023-12-14T05:03:48;97027.66;;;4.07;100.00
75788;BME280;64406;50.024;14.492;2023-12-14T05:06:13;97034.34;;;4.04;100.00
75788;BME280;64406;50.024;14.492;2023-12-14T05:08:39;97047.91;;;3.98;100.00
75788;BME280;64406;50.024;14.492;2023-12-14T05:11:05;97051.91;;;3.95;100.00
75788;BME280;64406;50.024;14.492;2023-12-14T05:13:31;97050.31;;;3.99;100.00
75788;BME280;64406;50.024;14.492;2023-12-14T05:15:56;97053.00;;;4.04;100.00
75788;BME280;64406;50.024;14.492;2023-12-14T05:18:25;97054.03;;;4.08;100.00
75788;BME280;64406;50.024;14.492;2023-12-14T05:20:51;97058.56;;;4.08;100.00
75788;BME280;64406;50.024;14.492;2023-12-14T05:23:16;97057.22;;;4.00;100.00
75788;BME280;64406;50.024;14.492;2023-12-14T05:25:42;97060.97;;;4.04;100.00
75788;BME280;64406;50.024;14.492;2023-12-14T05:28:08;97067.91;;;4.00;100.00
75788;BME280;64406;50.024;14.492;2023-12-14T05:30:33;97068.97;;;3.99;100.00
75788;BME280;64406;50.024;14.492;2023-12-14T05:32:59;97075.91;;;4.05;100.00
75788;BME280;64406;50.024;14.492;2023-12-14T05:35:24;97072.44;;;4.00;100.00
75788;BME280;64406;50.024;14.492;2023-12-14T05:37:51;97082.00;;;3.86;100.00
75788;BME280;64406;50.024;14.492;2023-12-14T05:40:16;97094.78;;;3.84;100.00
75788;BME280;64406;50.024;14.492;2023-12-14T05:42:42;97081.16;;;3.75;100.00
75788;BME280;64406;50.024;14.492;2023-12-14T05:45:08;97087.28;;;3.70;100.00
75788;BME280;64406;50.024;14.492;2023-12-14T05:47:34;97091.81;;;3.70;100.00
75788;BME280;64406;50.024;14.492;2023-12-14T05:50:00;97090.72;;;3.66;100.00
75788;BME280;64406;50.024;14.492;2023-12-14T05:52:27;97098.19;;;3.69;100.00
75788;BME280;64406;50.024;14.492;2023-12-14T05:54:53;97101.88;;;3.63;100.00
75788;BME280;64406;50.024;14.492;2023-12-14T05:57:19;97108.84;;;3.69;100.00
75788;BME280;64406;50.024;14.492;2023-12-14T05:59:44;97114.16;;;3.64;100.00
75788;BME280;64406;50.024;14.492;2023-12-14T06:02:10;97118.38;;;3.54;100.00
75788;BME280;64406;50.024;14.492;2023-12-14T06:04:35;97125.84;;;3.52;100.00
75788;BME280;64406;50.024;14.492;2023-12-14T06:07:01;97135.94;;;3.50;100.00
75788;BME280;64406;50.024;14.492;2023-12-14T06:09:26;97129.00;;;3.49;100.00
75788;BME280;64406;50.024;14.492;2023-12-14T06:12:03;97143.09;;;3.45;100.00
75788;BME280;64406;50.024;14.492;2023-12-14T06:14:29;97150.22;;;3.34;100.00
75788;BME280;64406;50.024;14.492;2023-12-14T06:16:55;97146.47;;;3.30;100.00
75788;BME280;64406;50.024;14.492;2023-12-14T06:19:21;97151.25;;;3.28;100.00
75788;BME280;64406;50.024;14.492;2023-12-14T06:21:48;97155.50;;;3.24;100.00
75788;BME280;64406;50.024;14.492;2023-12-14T06:24:14;97158.72;;;3.26;100.00
75788;BME280;64406;50.024;14.492;2023-12-14T06:26:46;97164.41;;;3.45;100.00
75788;BME280;64406;50.024;14.492;2023-12-14T06:29:12;97167.53;;;3.37;100.00
75788;BME280;64406;50.024;14.492;2023-12-14T06:31:38;97167.03;;;3.40;100.00
75788;BME280;64406;50.024;14.492;2023-12-14T06:34:05;97176.66;;;3.46;100.00
75788;BME280;64406;50.024;14.492;2023-12-14T06:36:31;97174.25;;;3.49;100.00
75788;BME280;64406;50.024;14.492;2023-12-14T06:38:58;97182.25;;;3.44;100.00
75788;BME280;64406;50.024;14.492;2023-12-14T06:41:25;97178.50;;;3.45;100.00
75788;BME280;64406;50.024;14.492;2023-12-14T06:43:51;97188.63;;;3.48;100.00
75788;BME280;64406;50.024;14.492;2023-12-14T06:46:17;97189.19;;;3.50;100.00
75788;BME280;64406;50.024;14.492;2023-12-14T06:48:43;97193.19;;;3.53;100.00
75788;BME280;64406;50.024;14.492;2023-12-14T06:51:09;97196.91;;;3.52;100.00
75788;BME280;64406;50.024;14.492;2023-12-14T06:53:41;97203.31;;;3.56;100.00
75788;BME280;64406;50.024;14.492;2023-12-14T06:56:08;97203.59;;;3.60;100.00
75788;BME280;64406;50.024;14.492;2023-12-14T06:58:39;97206.25;;;3.54;100.00
75788;BME280;64406;50.024;14.492;2023-12-14T07:01:07;97208.91;;;3.54;100.00
75788;BME280;64406;50.024;14.492;2023-12-14T07:03:32;97219.59;;;3.60;100.00
75788;BME280;64406;50.024;14.492;2023-12-14T07:05:58;97216.38;;;3.63;100.00
75788;BME280;64406;50.024;14.492;2023-12-14T07:08:24;97215.84;;;3.61;100.00
75788;BME280;64406;50.024;14.492;2023-12-14T07:10:50;97229.47;;;3.64;100.00
75788;BME280;64406;50.024;14.492;2023-12-14T07:13:16;97235.06;;;3.68;100.00
75788;BME280;64406;50.024;14.492;2023-12-14T07:15:42;97234.81;;;3.69;100.00
75788;BME280;64406;50.024;14.492;2023-12-14T07:18:07;97241.47;;;3.67;100.00
75788;BME280;64406;50.024;14.492;2023-12-14T07:20:33;97245.22;;;3.76;100.00
75788;BME280;64406;50.024;14.492;2023-12-14T07:22:59;97243.63;;;3.70;100.00
75788;BME280;64406;50.024;14.492;2023-12-14T07:25:25;97249.50;;;3.77;100.00
75788;BME280;64406;50.024;14.492;2023-12-14T07:27:50;97257.50;;;3.82;100.00
75788;BME280;64406;50.024;14.492;2023-12-14T07:30:16;97260.47;;;3.86;100.00
75788;BME280;64406;50.024;14.492;2023-12-14T07:32:42;97260.19;;;3.87;100.00
75788;BME280;64406;50.024;14.492;2023-12-14T07:35:08;97264.66;;;3.71;100.00
75788;BME280;64406;50.024;14.492;2023-12-14T07:37:34;97269.91;;;3.61;100.00
75788;BME280;64406;50.024;14.492;2023-12-14T07:40:00;97269.38;;;3.59;100.00
75788;BME280;64406;50.024;14.492;2023-12-14T07:42:25;97272.34;;;3.68;100.00
75788;BME280;64406;50.024;14.492;2023-12-14T07:44:51;97282.66;;;3.54;100.00
75788;BME280;64406;50.024;14.492;2023-12-14T07:47:17;97282.91;;;3.52;100.00
75788;BME280;64406;50.024;14.492;2023-12-14T07:49:43;97290.38;;;3.50;100.00
75788;BME280;64406;50.024;14.492;2023-12-14T07:52:08;97288.25;;;3.52;100.00
75788;BME280;64406;50.024;14.492;2023-12-14T07:54:35;97292.00;;;3.62;100.00
75788;BME280;64406;50.024;14.492;2023-12-14T07:57:01;97299.53;;;3.70;100.00
75788;BME280;64406;50.024;14.492;2023-12-14T07:59:27;97297.47;;;3.77;100.00
75788;BME280;64406;50.024;14.492;2023-12-14T08:01:52;97297.00;;;3.90;100.00
75788;BME280;64406;50.024;14.492;2023-12-14T08:04:18;97297.88;;;4.06;100.00
75788;BME280;64406;50.024;14.492;2023-12-14T08:06:44;97298.97;;;4.10;100.00
75788;BME280;64406;50.024;14.492;2023-12-14T08:09:10;97300.84;;;4.20;100.00
75788;BME280;64406;50.024;14.492;2023-12-14T08:11:35;97305.69;;;4.28;100.00
75788;BME280;64406;50.024;14.492;2023-12-14T08:14:01;97316.63;;;4.31;100.00
75788;BME280;64406;50.024;14.492;2023-12-14T08:16:28;97328.13;;;4.37;100.00
75788;BME280;64406;50.024;14.492;2023-12-14T08:18:54;97325.47;;;4.42;100.00
75788;BME280;64406;50.024;14.492;2023-12-14T08:21:19;97332.41;;;4.48;100.00
75788;BME280;64406;50.024;14.492;2023-12-14T08:23:45;97332.69;;;4.47;100.00
75788;BME280;64406;50.024;14.492;2023-12-14T08:26:11;97336.97;;;4.53;100.00
75788;BME280;64406;50.024;14.492;2023-12-14T08:28:39;97342.56;;;4.46;100.00
75788;BME280;64406;50.024;14.492;2023-12-14T08:31:04;97345.47;;;4.45;100.00
75788;BME280;64406;50.024;14.492;2023-12-14T08:33:30;97354.56;;;4.49;100.00
75788;BME280;64406;50.024;14.492;2023-12-14T08:35:56;97348.13;;;4.40;100.00
75788;BME280;64406;50.024;14.492;2023-12-14T08:38:22;97356.94;;;4.45;100.00
75788;BME280;64406;50.024;14.492;2023-12-14T08:40:48;97363.63;;;4.48;100.00
75788;BME280;64406;50.024;14.492;2023-12-14T08:43:23;97361.78;;;4.53;100.00
75788;BME280;64406;50.024;14.492;2023-12-14T08:45:48;97377.03;;;4.63;100.00
75788;BME280;64406;50.024;14.492;2023-12-14T08:48:14;97378.66;;;4.74;100.00
75788;BME280;64406;50.024;14.492;2023-12-14T08:50:40;97379.47;;;4.80;100.00
75788;BME280;64406;50.024;14.492;2023-12-14T08:53:06;97389.63;;;4.88;100.00
75788;BME280;64406;50.024;14.492;2023-12-14T08:55:32;97398.72;;;4.87;100.00
75788;BME280;64406;50.024;14.492;2023-12-14T08:57:58;97391.53;;;4.93;100.00
75788;BME280;64406;50.024;14.492;2023-12-14T09:00:24;97398.47;;;4.94;100.00
75788;BME280;64406;50.024;14.492;2023-12-14T09:02:49;97397.94;;;4.97;100.00
75788;BME280;64406;50.024;14.492;2023-12-14T09:05:15;97403.28;;;4.97;100.00
75788;BME280;64406;50.024;14.492;2023-12-14T09:07:42;97408.38;;;5.08;100.00
75788;BME280;64406;50.024;14.492;2023-12-14T09:10:08;97414.53;;;5.09;100.00
75788;BME280;64406;50.024;14.492;2023-12-14T09:12:34;97411.03;;;5.08;100.00
75788;BME280;64406;50.024;14.492;2023-12-14T09:15:03;97416.38;;;5.08;100.00
75788;BME280;64406;50.024;14.492;2023-12-14T09:17:29;97415.56;;;5.08;100.00
75788;BME280;64406;50.024;14.492;2023-12-14T09:20:01;97423.91;;;5.16;100.00
75788;BME280;64406;50.024;14.492;2023-12-14T09:22:31;97420.16;;;5.17;100.00
75788;BME280;64406;50.024;14.492;2023-12-14T09:24:56;97423.34;;;5.19;100.00
75788;BME280;64406;50.024;14.492;2023-12-14T09:27:23;97427.63;;;5.21;100.00
75788;BME280;64406;50.024;14.492;2023-12-14T09:29:49;97431.91;;;5.16;100.00
75788;BME280;64406;50.024;14.492;2023-12-14T09:32:15;97436.66;;;5.04;100.00
75788;BME280;64406;50.024;14.492;2023-12-14T09:34:43;97438.53;;;5.04;100.00
75788;BME280;64406;50.024;14.492;2023-12-14T09:37:09;97449.22;;;5.04;100.00
75788;BME280;64406;50.024;14.492;2023-12-14T09:39:34;97445.44;;;5.00;100.00
75788;BME280;64406;50.024;14.492;2023-12-14T09:42:03;97448.69;;;5.07;100.00
75788;BME280;64406;50.024;14.492;2023-12-14T09:44:33;97447.88;;;5.06;100.00
75788;BME280;64406;50.024;14.492;2023-12-14T09:47:01;97446.56;;;5.14;100.00
75788;BME280;64406;50.024;14.492;2023-12-14T09:49:29;97453.31;;;5.37;100.00
75788;BME280;64406;50.024;14.492;2023-12-14T09:51:56;97454.41;;;5.51;100.00
75788;BME280;64406;50.024;14.492;2023-12-14T09:54:22;97463.53;;;5.76;100.00
75788;BME280;64406;50.024;14.492;2023-12-14T09:56:49;97458.22;;;5.91;100.00
75788;BME280;64406;50.024;14.492;2023-12-14T09:59:16;97463.28;;;5.92;100.00
75788;BME280;64406;50.024;14.492;2023-12-14T10:01:42;97464.34;;;6.12;100.00
75788;BME280;64406;50.024;14.492;2023-12-14T10:04:12;97479.31;;;5.92;100.00
75788;BME280;64406;50.024;14.492;2023-12-14T10:06:39;97474.78;;;5.98;100.00
75788;BME280;64406;50.024;14.492;2023-12-14T10:09:05;97480.94;;;5.98;100.00
75788;BME280;64406;50.024;14.492;2023-12-14T10:11:35;97475.31;;;6.15;100.00
75788;BME280;64406;50.024;14.492;2023-12-14T10:14:02;97476.66;;;6.18;100.00
75788;BME280;64406;50.024;14.492;2023-12-14T10:16:33;97473.72;;;6.09;100.00
75788;BME280;64406;50.024;14.492;2023-12-14T10:18:59;97476.13;;;6.06;100.00
75788;BME280;64406;50.024;14.492;2023-12-14T10:21:27;97479.84;;;5.89;100.00
75788;BME280;64406;50.024;14.492;2023-12-14T10:23:56;97471.03;;;5.99;100.00
75788;BME280;64406;50.024;14.492;2023-12-14T10:26:26;97483.63;;;6.09;100.00
75788;BME280;64406;50.024;14.492;2023-12-14T10:28:52;97475.84;;;6.17;100.00
75788;BME280;64406;50.024;14.492;2023-12-14T10:31:20;97480.38;;;6.27;100.00
75788;BME280;64406;50.024;14.492;2023-12-14T10:33:48;97484.41;;;6.19;100.00
75788;BME280;64406;50.024;14.492;2023-12-14T10:36:18;97492.41;;;6.24;100.00
75788;BME280;64406;50.024;14.492;2023-12-14T10:38:47;97491.34;;;6.31;100.00
75788;BME280;64406;50.024;14.492;2023-12-14T10:41:13;97487.06;;;6.19;100.00
75788;BME280;64406;50.024;14.492;2023-12-14T10:43:39;97494.81;;;6.31;100.00
75788;BME280;64406;50.024;14.492;2023-12-14T10:46:07;97507.13;;;6.17;99.60
75788;BME280;64406;50.024;14.492;2023-12-14T10:48:36;97509.53;;;6.34;100.00
75788;BME280;64406;50.024;14.492;2023-12-14T10:51:08;97514.09;;;6.28;100.00
75788;BME280;64406;50.024;14.492;2023-12-14T10:53:35;97519.69;;;6.32;100.00
75788;BME280;64406;50.024;14.492;2023-12-14T10:56:04;97528.25;;;6.34;99.93
75788;BME280;64406;50.024;14.492;2023-12-14T10:58:55;97529.84;;;6.40;98.50
75788;BME280;64406;50.024;14.492;2023-12-14T11:01:22;97530.69;;;6.35;98.32
75788;BME280;64406;50.024;14.492;2023-12-14T11:03:51;97523.44;;;6.61;98.96
75788;BME280;64406;50.024;14.492;2023-12-14T11:06:30;97531.38;;;6.87;98.18
75788;BME280;64406;50.024;14.492;2023-12-14T11:09:01;97532.78;;;6.69;97.69
75788;BME280;64406;50.024;14.492;2023-12-14T11:11:42;97538.41;;;6.57;97.58
75788;BME280;64406;50.024;14.492;2023-12-14T11:14:11;97537.88;;;6.55;97.13
75788;BME280;64406;50.024;14.492;2023-12-14T11:16:39;97541.06;;;6.72;97.79
75788;BME280;64406;50.024;14.492;2023-12-14T11:21:47;97548.84;;;6.43;97.70
75788;BME280;64406;50.024;14.492;2023-12-14T11:24:13;97550.72;;;6.53;97.51
75788;BME280;64406;50.024;14.492;2023-12-14T11:26:40;97549.91;;;6.68;96.88
75788;BME280;64406;50.024;14.492;2023-12-14T11:29:06;97552.03;;;6.81;95.53
75788;BME280;64406;50.024;14.492;2023-12-14T11:31:32;97554.97;;;6.79;95.83
75788;BME280;64406;50.024;14.492;2023-12-14T11:34:03;97555.50;;;6.81;93.48
75788;BME280;64406;50.024;14.492;2023-12-14T11:36:33;97560.81;;;6.97;94.59
75788;BME280;64406;50.024;14.492;2023-12-14T11:38:58;97558.44;;;6.85;95.43
75788;BME280;64406;50.024;14.492;2023-12-14T11:41:24;97559.22;;;6.96;95.17
75788;BME280;64406;50.024;14.492;2023-12-14T11:43:51;97562.22;;;6.74;95.25
75788;BME280;64406;50.024;14.492;2023-12-14T11:46:17;97565.38;;;6.86;95.31
75788;BME280;64406;50.024;14.492;2023-12-14T11:48:44;97564.63;;;6.60;95.92
75788;BME280;64406;50.024;14.492;2023-12-14T11:51:17;97564.63;;;6.65;96.30
75788;BME280;64406;50.024;14.492;2023-12-14T11:53:45;97569.44;;;6.58;95.95
75788;BME280;64406;50.024;14.492;2023-12-14T11:56:11;97570.00;;;6.55;96.87
75788;BME280;64406;50.024;14.492;2023-12-14T11:58:41;97570.50;;;6.47;97.54
75788;BME280;64406;50.024;14.492;2023-12-14T12:01:15;97576.13;;;6.40;97.66
75788;BME280;64406;50.024;14.492;2023-12-14T12:03:45;97577.75;;;6.41;98.14
75788;BME280;64406;50.024;14.492;2023-12-14T12:06:20;97575.59;;;6.38;97.71
75788;BME280;64406;50.024;14.492;2023-12-14T12:08:47;97574.78;;;6.33;97.28
75788;BME280;64406;50.024;14.492;2023-12-14T12:11:17;97573.72;;;6.39;97.60
75788;BME280;64406;50.024;14.492;2023-12-14T12:13:43;97576.13;;;6.30;94.30
75788;BME280;64406;50.024;14.492;2023-12-14T12:16:08;97581.22;;;6.32;93.65
75788;BME280;64406;50.024;14.492;2023-12-14T12:18:34;97580.13;;;6.33;91.84
75788;BME280;64406;50.024;14.492;2023-12-14T12:20:59;97584.41;;;6.39;91.71
75788;BME280;64406;50.024;14.492;2023-12-14T12:23:29;97592.44;;;6.39;91.11
75788;BME280;64406;50.024;14.492;2023-12-14T12:25:55;97597.78;;;6.34;91.10
75788;BME280;64406;50.024;14.492;2023-12-14T12:28:21;97601.28;;;6.34;91.04
75788;BME280;64406;50.024;14.492;2023-12-14T12:30:47;97600.97;;;6.20;90.78
75788;BME280;64406;50.024;14.492;2023-12-14T12:33:13;97607.41;;;6.24;91.13
75788;BME280;64406;50.024;14.492;2023-12-14T12:35:38;97605.53;;;6.20;91.36
75788;BME280;64406;50.024;14.492;2023-12-14T12:38:04;97608.50;;;6.29;90.84
75788;BME280;64406;50.024;14.492;2023-12-14T12:40:29;97605.28;;;6.32;91.16
75788;BME280;64406;50.024;14.492;2023-12-14T12:42:57;97617.31;;;6.19;90.49
75788;BME280;64406;50.024;14.492;2023-12-14T12:45:22;97616.50;;;6.18;90.83
75788;BME280;64406;50.024;14.492;2023-12-14T12:47:51;97607.41;;;6.19;90.38
75788;BME280;64406;50.024;14.492;2023-12-14T12:50:17;97619.19;;;6.29;90.61
75788;BME280;64406;50.024;14.492;2023-12-14T12:52:42;97623.50;;;6.65;88.50
75788;BME280;64406;50.024;14.492;2023-12-14T12:55:09;97618.41;;;6.89;87.29